Details From OMRK - RAS AL KHAIMAH INTL
To ORSU - SULAYMANIYAH INTL
Flight Number -
Tags decoded
Created
Modified
Stats Distance 863 nm / 1,599 km
Max Altitude 0 ft / 0 m
Waypoints 5
Social Downloads 0
Likes 0
Share VATSIM

Download

Looking for another format? Having issues loading an existing format? Contact us
Advertisement - Login to hide

Notes

Requested: OMRK RAV NADNI SERSA ATBOR TUMAK ITBIT UMESA DAVAS ORSU Unmatched points: SERSA ITBIT UMESA DAVAS

Route

OMRK RAV NADNI ATBOR ORSU

ID Type Via Altitude Latitude Longitude Leg Dist Tot Dist Heading (true) Name
O OMRK APT - 0 ft / 0 m 25.61335˚ 55.93883˚ - 0 nm - RAS AL KHAIMAH INTL
RAV VOR - 0 ft / 0 m 25.58843˚ 55.94633˚ 1 nm 1 nm 165° / 165° RAS AL KHAIMAH VOR-DME
NADNI FIX - 0 ft / 0 m 25.32083˚ 55.94972˚ 16 nm 17 nm 179° / 179° -
ATBOR FIX - 0 ft / 0 m 25.16861˚ 55.32972˚ 34 nm 52 nm 255° / 255° -
O ORSU APT - 0 ft / 0 m 35.56086˚ 45.31466˚ 810 nm 863 nm 323° / 318° SULAYMANIYAH INTL

Altitude Profile

Advertisement - Login to hide

Weather


0- 5 10 15 20 25 30 35+ Temperature / ° C

Clouds and Precipitation
Forecast for 2018-05-26 00:00 UTC. Updated 5 hours ago

Ground ~20,000 ft ~40,000 ft Winds

OMRK

Details ICAO OMRK (RKT)
Name RAS AL KHAIMAH INTL
Region United Arab Emirates
Timezone Asia/Dubai (UTC+4.0)
Stats Elevation 102 ft / 31 m (AMSL)
Location 25.613352° 55.938831°
Runways 1
Magnetic Variation 2.074° E

METAR

OMRK 260400Z 20004KT 8000 NSC 33/19 Q1007 A2976

Decode

TAF

TAF OMRK 252304Z 2600/2706 VRB02KT 8000 NSC BECMG 2602/2604 21010KT BECMG 2607/2609 33015KT BECMG 2615/2617 VRB02KT

Decode

Departure Runways

ID Width Length Bearing (true) Bearing (mag) Surface Threshold Offset Overrun Length
16 148 ft / 45 m 12,391 ft / 3,777 m 164.83° 162.76° Asphalt 0 ft / 0 m 165 ft / 50 m
34 148 ft / 45 m 12,391 ft / 3,777 m 344.84° 342.77° Asphalt 0 ft / 0 m 165 ft / 50 m

ORSU

Details ICAO ORSU (ISU)
Name SULAYMANIYAH INTL
Region Iraq
Timezone Asia/Baghdad (UTC+3.0)
Stats Elevation 2,494 ft / 760 m (AMSL)
Location 35.560856° 45.314664°
Runways 1
Magnetic Variation 5.070° E

METAR

ORSU 260400Z 00000KT CAVOK 21/12 Q1014

Decode

TAF

Not found

Destination Runways

ID Width Length Bearing (true) Bearing (mag) Surface Threshold Offset Overrun Length
13 148 ft / 45 m 11,482 ft / 3,500 m 133.03° 127.96° Concrete 0 ft / 0 m 200 ft / 61 m
31 148 ft / 45 m 11,482 ft / 3,500 m 313.04° 307.97° Concrete 0 ft / 0 m 200 ft / 61 m

Approach Navaids

Runway Type Ident Frequency Range Bearing (true) Bearing (mag) Slope Elevation
31 Localiser RNJ 111.70 MHz 18 nm / 33 km 313.02° 307.95° - 2,505 ft / 764 m (AMSL)
31 Glidescope RNJ 111.70 MHz 10 nm / 19 km 313.03° 307.96° 3.00° 2,440 ft / 744 m (AMSL)
31 DME RNJ 111.70 MHz 18 nm / 33 km - - - 2,440 ft / 744 m (AMSL)

Popular Alternatives